Time;durP1;ratioP1;P1;durP2;ratioP2;P2;SDS_P1;SDS_P2;PMS_P1;PMS_P2;Temp;Humidity;BMP_temperature;BMP_pressure;BME280_temperature;BME280_humidity;BME280_pressure;Samples;Min_cycle;Max_cycle;Signal;HPM_P1;HPM_P2
2023/06/05 00:01:59;;;;;;;;;;;19.90;50.80;;;;;;5094740;28;19924;-69
2023/06/05 00:04:24;;;;;;;;;;;19.80;50.70;;;;;;5094697;28;19919;-69
2023/06/05 00:06:51;;;;;;;;;;;19.80;50.80;;;;;;5094678;28;19942;-69
2023/06/05 00:09:17;;;;;;;;;;;19.90;50.80;;;;;;5094928;28;19920;-69
2023/06/05 00:11:42;;;;;;;;;;;19.80;50.70;;;;;;5094688;28;19920;-69
2023/06/05 00:14:08;;;;;;;;;;;19.80;50.70;;;;;;5112675;28;19923;-69
2023/06/05 00:16:34;;;;;;;;;;;19.80;50.70;;;;;;5094488;28;19927;-69
2023/06/05 00:19:00;;;;;;;;;;;19.80;50.80;;;;;;5090925;28;19924;-69
2023/06/05 00:21:26;;;;;;;;;;;19.80;50.70;;;;;;5091188;28;19920;-69
2023/06/05 00:23:51;;;;;;;;;;;19.80;50.80;;;;;;5090960;28;19919;-69
2023/06/05 00:26:17;;;;;;;;;;;19.80;50.70;;;;;;5093601;28;19926;-69
2023/06/05 00:28:42;;;;;;;;;;;19.80;50.70;;;;;;5112699;28;19946;-69
2023/06/05 00:31:08;;;;;;;;;;;19.80;50.80;;;;;;5112584;28;20271;-69
2023/06/05 00:33:33;;;;;;;;;;;19.70;50.70;;;;;;5112860;28;20416;-69
2023/06/05 00:35:59;;;;;;;;;;;19.80;50.70;;;;;;5094302;28;19919;-69
2023/06/05 00:38:24;;;;;;;;;;;19.70;50.70;;;;;;5094486;28;19931;-69
2023/06/05 00:40:50;;;;;;;;;;;19.70;50.70;;;;;;5094306;28;19980;-73
2023/06/05 00:43:16;;;;;;;;;;;19.70;50.70;;;;;;5094359;28;19927;-69
2023/06/05 00:45:42;;;;;;;;;;;19.70;50.80;;;;;;5094262;28;19920;-69
2023/06/05 00:48:07;;;;;;;;;;;19.70;50.80;;;;;;5094456;28;19920;-69
2023/06/05 00:50:33;;;;;;;;;;;19.60;50.70;;;;;;5094268;28;19927;-69
2023/06/05 00:53:01;;;;;;;;;;;19.60;50.70;;;;;;5112375;28;19920;-69
2023/06/05 00:55:26;;;;;;;;;;;19.60;50.80;;;;;;5094357;28;19970;-69
2023/06/05 00:57:52;;;;;;;;;;;19.60;50.80;;;;;;5112272;28;19979;-69
2023/06/05 01:00:18;;;;;;;;;;;19.60;50.80;;;;;;5094472;28;20351;-69
2023/06/05 01:02:43;;;;;;;;;;;19.60;50.80;;;;;;5094082;28;20018;-69
2023/06/05 01:05:09;;;;;;;;;;;19.60;50.80;;;;;;5094168;28;19919;-69
2023/06/05 01:07:37;;;;;;;;;;;19.50;50.70;;;;;;5094420;28;20280;-69
2023/06/05 01:10:04;;;;;;;;;;;19.50;50.70;;;;;;5094431;28;19969;-69
2023/06/05 01:12:36;;;;;;;;;;;19.50;50.70;;;;;;5074349;28;19920;-69
2023/06/05 01:15:02;;;;;;;;;;;19.50;50.80;;;;;;5091924;28;20015;-69
2023/06/05 01:17:29;;;;;;;;;;;19.50;50.70;;;;;;5076451;28;19920;-69
2023/06/05 01:19:54;;;;;;;;;;;19.50;50.70;;;;;;5093935;28;19928;-69
2023/06/05 01:22:20;;;;;;;;;;;19.50;50.70;;;;;;5112355;28;19926;-69
2023/06/05 01:24:47;;;;;;;;;;;19.50;50.70;;;;;;5128300;28;19920;-69
2023/06/05 01:27:17;;;;;;;;;;;19.50;50.70;;;;;;5097493;28;19919;-69
2023/06/05 01:32:29;;;;;;;;;;;19.50;50.70;;;;;;5110313;27;20301;-69
2023/06/05 01:34:55;;;;;;;;;;;19.50;50.70;;;;;;5108960;28;19941;-69
2023/06/05 01:37:24;;;;;;;;;;;19.40;50.70;;;;;;5109213;28;20283;-69
2023/06/05 01:39:51;;;;;;;;;;;19.40;50.70;;;;;;5108974;28;19959;-69
2023/06/05 01:42:16;;;;;;;;;;;19.40;50.70;;;;;;5108863;28;19920;-69
2023/06/05 01:44:42;;;;;;;;;;;19.40;50.70;;;;;;5108973;28;19985;-69
2023/06/05 01:47:08;;;;;;;;;;;19.40;50.70;;;;;;5108679;28;19942;-69
2023/06/05 01:49:34;;;;;;;;;;;19.30;50.70;;;;;;5108963;28;20019;-69
2023/06/05 01:51:59;;;;;;;;;;;19.40;50.70;;;;;;5109950;28;19924;-69
2023/06/05 01:54:26;;;;;;;;;;;19.40;50.70;;;;;;5108886;28;19924;-69
2023/06/05 01:56:53;;;;;;;;;;;19.40;50.80;;;;;;5143179;27;20317;-69
2023/06/05 01:59:19;;;;;;;;;;;19.30;50.70;;;;;;5109677;28;20382;-69
2023/06/05 02:01:44;;;;;;;;;;;19.30;50.70;;;;;;5108511;28;20323;-69
2023/06/05 02:04:10;;;;;;;;;;;19.30;50.70;;;;;;5108395;28;19920;-69
2023/06/05 02:06:41;;;;;;;;;;;19.30;50.70;;;;;;5108661;28;19930;-69
2023/06/05 02:09:09;;;;;;;;;;;19.30;50.70;;;;;;5109657;28;19927;-69
2023/06/05 02:11:37;;;;;;;;;;;19.30;50.70;;;;;;5108230;28;19976;-69
2023/06/05 02:14:04;;;;;;;;;;;19.30;50.70;;;;;;5108427;28;19923;-69
2023/06/05 02:16:30;;;;;;;;;;;19.30;50.70;;;;;;5108201;28;19920;-69
2023/06/05 02:18:57;;;;;;;;;;;19.20;50.70;;;;;;5109557;28;20025;-69
2023/06/05 02:21:22;;;;;;;;;;;19.20;50.70;;;;;;5109393;28;19927;-69
2023/06/05 02:23:49;;;;;;;;;;;19.20;50.70;;;;;;5108451;28;19920;-69
2023/06/05 02:26:17;;;;;;;;;;;19.20;50.70;;;;;;5108232;28;20007;-69
2023/06/05 02:28:43;;;;;;;;;;;19.20;50.70;;;;;;5108208;28;19920;-69
2023/06/05 02:31:10;;;;;;;;;;;19.20;50.70;;;;;;5142080;27;19935;-69
2023/06/05 02:33:35;;;;;;;;;;;19.20;50.70;;;;;;5108083;28;19928;-69
2023/06/05 02:36:01;;;;;;;;;;;19.20;51.50;;;;;;5107708;28;20265;-69
2023/06/05 02:38:28;;;;;;;;;;;19.20;50.70;;;;;;5108004;28;19920;-69
2023/06/05 02:40:54;;;;;;;;;;;19.20;50.70;;;;;;5107934;28;20337;-70
2023/06/05 02:43:21;;;;;;;;;;;19.10;50.70;;;;;;5096459;28;19920;-69
2023/06/05 02:45:47;;;;;;;;;;;19.10;50.70;;;;;;5094185;28;19982;-69
2023/06/05 02:48:12;;;;;;;;;;;19.10;50.70;;;;;;5128501;27;19971;-69
2023/06/05 02:50:38;;;;;;;;;;;19.10;50.70;;;;;;5094064;28;19924;-69
2023/06/05 02:53:03;;;;;;;;;;;19.10;50.70;;;;;;5128397;27;19960;-69
2023/06/05 02:55:29;;;;;;;;;;;19.10;50.70;;;;;;5128036;27;19927;-69
2023/06/05 02:57:57;;;;;;;;;;;19.10;50.70;;;;;;5094101;28;19968;-69
2023/06/05 03:00:22;;;;;;;;;;;19.10;50.70;;;;;;5093670;28;19920;-69
2023/06/05 03:02:48;;;;;;;;;;;19.10;50.70;;;;;;5093785;28;19962;-69
2023/06/05 03:05:14;;;;;;;;;;;19.10;50.80;;;;;;5094172;28;20271;-72
2023/06/05 03:07:40;;;;;;;;;;;19.10;50.80;;;;;;5093547;28;20314;-69
2023/06/05 03:10:07;;;;;;;;;;;19.10;50.70;;;;;;5094834;28;19931;-69
2023/06/05 03:12:33;;;;;;;;;;;19.10;50.70;;;;;;5073611;28;19921;-69
2023/06/05 03:14:58;;;;;;;;;;;19.00;50.70;;;;;;5073202;28;20398;-69
2023/06/05 03:17:24;;;;;;;;;;;19.00;50.70;;;;;;5073201;28;19926;-69
2023/06/05 03:19:50;;;;;;;;;;;19.00;50.70;;;;;;5073437;28;19966;-73
2023/06/05 03:22:16;;;;;;;;;;;19.00;50.80;;;;;;5073080;28;19930;-69
2023/06/05 03:24:42;;;;;;;;;;;19.00;50.70;;;;;;5073075;28;19924;-69
2023/06/05 03:27:07;;;;;;;;;;;19.00;50.70;;;;;;5073284;28;19970;-69
2023/06/05 03:29:33;;;;;;;;;;;19.00;50.70;;;;;;5074296;28;19960;-69
2023/06/05 03:31:58;;;;;;;;;;;19.00;50.70;;;;;;5106400;28;20426;-69
2023/06/05 03:34:25;;;;;;;;;;;18.90;50.70;;;;;;5072833;28;19927;-69
2023/06/05 03:36:51;;;;;;;;;;;19.00;50.70;;;;;;5072978;28;19920;-73
2023/06/05 03:39:17;;;;;;;;;;;19.00;50.80;;;;;;5073138;28;19924;-69
2023/06/05 03:41:42;;;;;;;;;;;19.00;50.80;;;;;;5072888;28;20322;-69
2023/06/05 03:44:08;;;;;;;;;;;19.00;50.80;;;;;;5072972;28;19920;-70
2023/06/05 03:46:35;;;;;;;;;;;18.90;50.70;;;;;;5072529;28;19921;-69
2023/06/05 03:49:05;;;;;;;;;;;18.90;50.80;;;;;;5072764;28;20061;-69
2023/06/05 03:51:30;;;;;;;;;;;18.90;50.70;;;;;;5072452;28;20159;-69
2023/06/05 03:53:58;;;;;;;;;;;18.90;50.80;;;;;;5071798;28;19927;-69
2023/06/05 03:56:28;;;;;;;;;;;18.90;50.80;;;;;;5073704;28;20015;-70
2023/06/05 03:58:53;;;;;;;;;;;18.90;50.80;;;;;;5072311;28;19970;-69
2023/06/05 04:01:19;;;;;;;;;;;18.90;50.80;;;;;;5072482;28;19925;-69
2023/06/05 04:03:45;;;;;;;;;;;18.80;50.70;;;;;;5072592;28;19967;-69
2023/06/05 04:06:10;;;;;;;;;;;18.90;50.80;;;;;;5073454;28;20364;-69
2023/06/05 04:08:36;;;;;;;;;;;18.90;50.80;;;;;;5072079;28;19920;-69
2023/06/05 04:11:02;;;;;;;;;;;18.90;50.80;;;;;;5079521;28;19924;-69
2023/06/05 04:13:27;;;;;;;;;;;18.80;50.70;;;;;;5126727;27;19927;-70
2023/06/05 04:15:53;;;;;;;;;;;18.90;50.80;;;;;;5126404;27;20417;-69
2023/06/05 04:18:19;;;;;;;;;;;18.80;50.70;;;;;;5092430;28;19920;-69
2023/06/05 04:20:44;;;;;;;;;;;18.90;50.80;;;;;;5126327;27;20367;-70
2023/06/05 04:23:10;;;;;;;;;;;18.80;50.70;;;;;;5126676;27;19920;-69
2023/06/05 04:25:35;;;;;;;;;;;18.80;50.70;;;;;;5126534;27;20014;-70
2023/06/05 04:28:01;;;;;;;;;;;18.80;50.80;;;;;;5093354;28;20391;-69
2023/06/05 04:30:26;;;;;;;;;;;18.80;50.80;;;;;;5097249;28;19973;-69
2023/06/05 04:32:54;;;;;;;;;;;18.80;50.80;;;;;;5129793;27;19927;-69
2023/06/05 04:35:20;;;;;;;;;;;18.80;50.80;;;;;;5095174;28;20402;-69
2023/06/05 04:37:46;;;;;;;;;;;18.80;50.80;;;;;;5095316;28;19924;-70
2023/06/05 04:40:11;;;;;;;;;;;18.80;50.80;;;;;;5078217;28;19927;-73
2023/06/05 04:42:37;;;;;;;;;;;18.80;50.80;;;;;;5129599;27;20291;-69
2023/06/05 04:45:04;;;;;;;;;;;18.80;50.80;;;;;;5095135;28;20028;-70
2023/06/05 04:47:30;;;;;;;;;;;18.80;50.80;;;;;;5095004;28;20354;-69
2023/06/05 04:50:00;;;;;;;;;;;18.80;50.80;;;;;;5095255;28;19942;-69
2023/06/05 04:52:26;;;;;;;;;;;18.80;50.80;;;;;;5095078;28;20031;-69
2023/06/05 04:54:52;;;;;;;;;;;18.80;50.80;;;;;;5129434;27;20274;-69
2023/06/05 04:57:18;;;;;;;;;;;18.80;51.60;;;;;;5094955;28;20014;-70
2023/06/05 04:59:44;;;;;;;;;;;18.80;50.90;;;;;;5113092;28;19920;-70
2023/06/05 05:02:10;;;;;;;;;;;18.80;50.90;;;;;;5095139;28;20283;-69
2023/06/05 05:04:35;;;;;;;;;;;18.80;50.90;;;;;;5095145;28;19927;-70
2023/06/05 05:07:01;;;;;;;;;;;18.80;50.90;;;;;;5128782;27;19920;-69
2023/06/05 05:09:27;;;;;;;;;;;18.80;50.90;;;;;;5095425;28;20432;-69
2023/06/05 05:11:52;;;;;;;;;;;18.70;50.80;;;;;;5128645;27;19924;-69
2023/06/05 05:14:18;;;;;;;;;;;18.80;50.90;;;;;;5095098;28;19973;-69
2023/06/05 05:16:43;;;;;;;;;;;18.80;50.90;;;;;;5094567;28;19920;-70
2023/06/05 05:19:09;;;;;;;;;;;18.70;50.90;;;;;;5094703;28;19932;-70
2023/06/05 05:21:36;;;;;;;;;;;18.80;51.00;;;;;;5113036;28;19920;-70
2023/06/05 05:24:01;;;;;;;;;;;18.70;50.90;;;;;;5094880;28;19920;-69
2023/06/05 05:26:27;;;;;;;;;;;18.80;51.00;;;;;;5112840;28;19942;-69
2023/06/05 05:28:53;;;;;;;;;;;18.70;51.10;;;;;;5093981;28;20363;-70
2023/06/05 05:31:18;;;;;;;;;;;18.80;51.00;;;;;;5112328;28;19931;-71
2023/06/05 05:33:44;;;;;;;;;;;18.80;51.20;;;;;;5093374;28;20363;-70
2023/06/05 05:36:09;;;;;;;;;;;18.80;51.20;;;;;;5093042;28;19920;-70
2023/06/05 05:38:35;;;;;;;;;;;18.80;51.40;;;;;;5112280;28;20383;-70
2023/06/05 05:41:00;;;;;;;;;;;18.80;51.50;;;;;;5093938;28;20276;-70
2023/06/05 05:43:26;;;;;;;;;;;18.80;51.60;;;;;;5076576;28;19927;-72
2023/06/05 05:45:51;;;;;;;;;;;18.80;51.60;;;;;;5110870;28;19989;-70
2023/06/05 05:48:17;;;;;;;;;;;18.90;51.80;;;;;;5111314;28;19919;-75
2023/06/05 05:50:42;;;;;;;;;;;19.00;51.80;;;;;;5091684;28;20000;-70
2023/06/05 05:53:08;;;;;;;;;;;19.00;52.10;;;;;;5090245;28;19920;-67
2023/06/05 05:55:33;;;;;;;;;;;18.90;51.80;;;;;;5092164;28;19931;-70
2023/06/05 05:57:59;;;;;;;;;;;19.00;51.80;;;;;;5126951;28;19949;-70
2023/06/05 06:00:25;;;;;;;;;;;19.00;51.70;;;;;;5092870;28;20389;-70
2023/06/05 06:02:52;;;;;;;;;;;19.00;51.70;;;;;;5087350;28;19919;-70
2023/06/05 06:05:18;;;;;;;;;;;19.00;51.70;;;;;;5087724;28;19967;-69
2023/06/05 06:07:43;;;;;;;;;;;19.00;52.00;;;;;;5100571;28;20010;-70
2023/06/05 06:10:09;;;;;;;;;;;19.10;52.10;;;;;;5077820;28;20014;-69
2023/06/05 06:12:36;;;;;;;;;;;19.10;51.90;;;;;;5095594;28;19920;-69
2023/06/05 06:15:01;;;;;;;;;;;19.10;51.90;;;;;;5076293;28;19971;-69
2023/06/05 06:17:27;;;;;;;;;;;19.10;51.90;;;;;;5100661;28;20421;-67
2023/06/05 06:19:53;;;;;;;;;;;19.10;51.90;;;;;;5085319;28;19924;-69
2023/06/05 06:22:19;;;;;;;;;;;19.10;51.90;;;;;;5063675;28;20124;-70
2023/06/05 06:24:44;;;;;;;;;;;19.10;51.90;;;;;;5072719;28;19931;-67
2023/06/05 06:27:10;;;;;;;;;;;19.10;52.00;;;;;;5071570;28;20303;-69
2023/06/05 06:29:37;;;;;;;;;;;19.10;52.10;;;;;;5072833;28;20219;-69
2023/06/05 06:32:03;;;;;;;;;;;19.10;52.00;;;;;;5089098;27;20410;-69
2023/06/05 06:34:29;;;;;;;;;;;19.20;52.20;;;;;;5073878;28;19923;-69
2023/06/05 06:36:54;;;;;;;;;;;19.10;52.10;;;;;;5075625;28;19923;-69
2023/06/05 06:39:20;;;;;;;;;;;19.20;52.20;;;;;;5075976;28;19920;-69
2023/06/05 06:41:45;;;;;;;;;;;19.20;53.00;;;;;;5075689;28;19928;-69
2023/06/05 06:44:11;;;;;;;;;;;19.10;52.10;;;;;;5080183;28;20154;-70
2023/06/05 06:46:36;;;;;;;;;;;19.20;52.40;;;;;;5073691;28;20010;-70
2023/06/05 06:49:02;;;;;;;;;;;19.20;52.40;;;;;;5081313;28;20007;-69
2023/06/05 06:51:28;;;;;;;;;;;19.20;52.40;;;;;;5086532;28;19963;-68
2023/06/05 06:53:53;;;;;;;;;;;19.10;52.30;;;;;;5079392;28;20056;-68
2023/06/05 06:56:19;;;;;;;;;;;19.20;52.60;;;;;;5092793;28;19963;-70
2023/06/05 06:58:45;;;;;;;;;;;19.20;52.80;;;;;;5074835;28;20169;-67
2023/06/05 07:01:14;;;;;;;;;;;19.20;52.80;;;;;;5094503;28;19934;-65
2023/06/05 07:03:40;;;;;;;;;;;19.20;53.00;;;;;;5079400;28;19920;-68
2023/06/05 07:06:06;;;;;;;;;;;19.30;53.30;;;;;;5072832;28;20287;-66
2023/06/05 07:08:32;;;;;;;;;;;19.30;53.30;;;;;;5070311;28;19935;-64
2023/06/05 07:10:58;;;;;;;;;;;19.30;53.60;;;;;;5104567;27;19928;-67
2023/06/05 07:13:23;;;;;;;;;;;19.40;53.70;;;;;;5073522;28;20044;-67
2023/06/05 07:15:49;;;;;;;;;;;19.40;53.80;;;;;;5075499;28;19931;-69
2023/06/05 07:18:15;;;;;;;;;;;19.40;53.70;;;;;;5107539;27;19928;-66
2023/06/05 07:20:40;;;;;;;;;;;19.40;53.90;;;;;;5091467;28;19924;-67
2023/06/05 07:23:07;;;;;;;;;;;19.40;53.90;;;;;;5075704;28;19946;-65
2023/06/05 07:25:32;;;;;;;;;;;19.40;53.90;;;;;;5070953;28;20445;-67
2023/06/05 07:27:59;;;;;;;;;;;19.40;53.90;;;;;;5073783;28;19924;-71
2023/06/05 07:30:25;;;;;;;;;;;19.40;53.80;;;;;;5090764;28;19927;-72
2023/06/05 07:32:51;;;;;;;;;;;19.40;54.00;;;;;;5081687;28;19924;-71
2023/06/05 07:35:16;;;;;;;;;;;19.40;53.90;;;;;;5073088;28;19932;-66
2023/06/05 07:37:42;;;;;;;;;;;19.50;53.80;;;;;;5080754;28;19924;-71
2023/06/05 07:40:08;;;;;;;;;;;19.50;53.90;;;;;;5092283;28;19950;-66
2023/06/05 07:42:34;;;;;;;;;;;19.50;54.10;;;;;;5072771;28;20587;-68
2023/06/05 07:45:00;;;;;;;;;;;19.50;54.20;;;;;;5092632;28;19927;-67
2023/06/05 07:47:25;;;;;;;;;;;19.50;54.50;;;;;;5087521;28;20563;-68
2023/06/05 07:49:59;;;;;;;;;;;19.50;54.60;;;;;;5073766;28;19954;-72
2023/06/05 07:52:24;;;;;;;;;;;19.50;54.90;;;;;;5073662;28;19932;-67
2023/06/05 07:54:50;;;;;;;;;;;19.50;54.70;;;;;;5075401;28;20386;-68
2023/06/05 07:57:17;;;;;;;;;;;19.50;54.70;;;;;;5072799;28;19928;-66
2023/06/05 07:59:43;;;;;;;;;;;19.50;54.80;;;;;;5089953;28;19923;-66
2023/06/05 08:02:08;;;;;;;;;;;19.50;54.80;;;;;;5088815;28;20445;-67
2023/06/05 08:04:35;;;;;;;;;;;19.60;54.90;;;;;;5072283;28;19950;-66
2023/06/05 08:07:01;;;;;;;;;;;19.60;54.90;;;;;;5093271;28;19924;-65
2023/06/05 08:09:26;;;;;;;;;;;19.60;55.20;;;;;;5077393;28;19931;-69
2023/06/05 08:11:52;;;;;;;;;;;19.60;55.70;;;;;;5073700;28;19932;-70
2023/06/05 08:14:20;;;;;;;;;;;19.60;55.60;;;;;;5074156;28;19924;-69
2023/06/05 08:16:46;;;;;;;;;;;19.70;55.60;;;;;;5071860;28;19931;-69
2023/06/05 08:19:11;;;;;;;;;;;19.70;55.50;;;;;;5093520;27;19967;-70
2023/06/05 08:21:37;;;;;;;;;;;19.80;55.50;;;;;;5070612;28;19924;-67
2023/06/05 08:24:03;;;;;;;;;;;19.80;55.30;;;;;;5074763;28;19924;-67
2023/06/05 08:26:28;;;;;;;;;;;19.90;55.20;;;;;;5091596;27;19974;-63
2023/06/05 08:28:57;;;;;;;;;;;19.90;54.80;;;;;;5098600;27;20542;-72
2023/06/05 08:31:23;;;;;;;;;;;19.90;54.70;;;;;;5071347;28;19932;-72
2023/06/05 08:33:48;;;;;;;;;;;20.00;54.70;;;;;;5075578;28;19923;-72
2023/06/05 08:36:14;;;;;;;;;;;20.00;54.60;;;;;;5088920;28;19946;-71
2023/06/05 08:38:40;;;;;;;;;;;20.00;54.40;;;;;;5091184;27;19924;-71
2023/06/05 08:41:07;;;;;;;;;;;20.00;54.30;;;;;;5071836;28;20578;-71
2023/06/05 08:43:37;;;;;;;;;;;20.10;54.20;;;;;;5078472;28;19956;-71
2023/06/05 08:46:04;;;;;;;;;;;20.10;54.20;;;;;;5089184;28;19951;-72
2023/06/05 08:48:31;;;;;;;;;;;20.00;54.10;;;;;;5070422;28;20230;-68
2023/06/05 08:50:58;;;;;;;;;;;20.10;54.20;;;;;;5070320;28;19936;-66
2023/06/05 08:53:25;;;;;;;;;;;20.10;54.10;;;;;;5099273;27;19924;-68
2023/06/05 08:55:53;;;;;;;;;;;20.10;54.20;;;;;;5075003;28;19932;-68
2023/06/05 08:58:18;;;;;;;;;;;20.20;54.20;;;;;;5072569;28;19923;-67
2023/06/05 09:00:44;;;;;;;;;;;20.20;54.20;;;;;;5073277;28;19926;-66
2023/06/05 09:03:13;;;;;;;;;;;20.30;54.20;;;;;;5071266;28;20007;-71
2023/06/05 09:05:38;;;;;;;;;;;20.30;53.90;;;;;;5102666;27;20142;-69
2023/06/05 09:08:04;;;;;;;;;;;20.40;53.90;;;;;;5066621;28;20323;-67
2023/06/05 09:10:30;;;;;;;;;;;20.40;54.00;;;;;;5090733;27;19982;-69
2023/06/05 09:12:56;;;;;;;;;;;20.50;53.90;;;;;;5069994;28;19924;-66
2023/06/05 09:15:23;;;;;;;;;;;20.50;53.90;;;;;;5089797;28;19977;-66
2023/06/05 09:18:02;;;;;;;;;;;20.50;53.90;;;;;;5078663;28;20395;-66
2023/06/05 09:20:29;;;;;;;;;;;20.50;53.80;;;;;;5071298;28;20105;-66
2023/06/05 09:22:54;;;;;;;;;;;20.50;53.90;;;;;;5070094;28;19931;-67
2023/06/05 09:25:20;;;;;;;;;;;20.60;54.00;;;;;;5069011;28;19924;-73
2023/06/05 09:28:04;;;;;;;;;;;20.60;54.30;;;;;;5090050;28;19934;-69
2023/06/05 09:30:30;;;;;;;;;;;20.60;54.00;;;;;;5071726;28;19927;-66
2023/06/05 09:32:55;;;;;;;;;;;20.70;54.40;;;;;;5103160;28;19935;-68
2023/06/05 09:35:21;;;;;;;;;;;20.70;54.40;;;;;;5081855;28;19950;-66
2023/06/05 09:37:46;;;;;;;;;;;20.70;54.60;;;;;;5067757;28;19924;-65
2023/06/05 09:40:14;;;;;;;;;;;20.70;54.70;;;;;;5075765;28;20271;-69
2023/06/05 09:42:40;;;;;;;;;;;20.80;54.70;;;;;;5071746;28;19982;-69
2023/06/05 09:45:06;;;;;;;;;;;20.80;55.30;;;;;;5072535;28;19932;-69
2023/06/05 09:47:31;;;;;;;;;;;20.80;54.70;;;;;;5106420;28;20454;-67
2023/06/05 09:49:57;;;;;;;;;;;20.90;54.70;;;;;;5071441;28;19946;-66
2023/06/05 09:52:23;;;;;;;;;;;20.90;54.60;;;;;;5073794;28;20212;-63
2023/06/05 09:54:49;;;;;;;;;;;20.90;54.90;;;;;;5095991;28;20181;-61
2023/06/05 09:57:15;;;;;;;;;;;20.90;55.00;;;;;;5073589;28;19924;-61
2023/06/05 10:02:31;;;;;;;;;;;21.00;54.80;;;;;;5069113;27;19949;-62
2023/06/05 10:04:59;;;;;;;;;;;21.00;54.70;;;;;;5084785;28;19928;-62
2023/06/05 10:07:25;;;;;;;;;;;21.00;54.60;;;;;;5067643;28;19924;-66
2023/06/05 10:09:50;;;;;;;;;;;21.00;54.50;;;;;;5100573;28;19924;-66
2023/06/05 10:12:16;;;;;;;;;;;21.00;54.30;;;;;;5071153;28;19928;-70
2023/06/05 10:14:42;;;;;;;;;;;21.00;54.50;;;;;;5068482;28;20309;-70
2023/06/05 10:17:10;;;;;;;;;;;21.00;54.40;;;;;;5069800;28;19931;-68
2023/06/05 10:19:35;;;;;;;;;;;20.90;54.30;;;;;;5098816;28;19928;-71
2023/06/05 10:22:01;;;;;;;;;;;20.90;54.20;;;;;;5071950;28;19928;-71
2023/06/05 10:24:30;;;;;;;;;;;20.90;54.20;;;;;;5070215;28;20344;-68
2023/06/05 10:27:16;;;;;;;;;;;20.90;54.20;;;;;;5066737;28;20118;-68
2023/06/05 10:30:01;;;;;;;;;;;20.90;54.20;;;;;;5071506;28;19931;-68
2023/06/05 10:35:27;;;;;;;;;;;20.90;54.10;;;;;;5077358;27;20253;-68
2023/06/05 10:40:41;;;;;;;;;;;20.90;53.90;;;;;;5084785;27;19928;-68
2023/06/05 10:43:26;;;;;;;;;;;20.90;53.80;;;;;;5085711;28;20397;-68
2023/06/05 10:45:53;;;;;;;;;;;20.90;53.80;;;;;;5083087;28;19928;-65
2023/06/05 10:48:18;;;;;;;;;;;20.90;53.60;;;;;;5086922;28;19977;-70
2023/06/05 10:50:44;;;;;;;;;;;20.90;53.70;;;;;;5082139;28;19928;-66
2023/06/05 10:53:29;;;;;;;;;;;20.90;53.80;;;;;;5077739;28;19924;-66
2023/06/05 10:55:55;;;;;;;;;;;21.00;53.90;;;;;;5088691;28;19951;-63
2023/06/05 10:58:23;;;;;;;;;;;20.90;54.00;;;;;;5107154;27;19924;-66
2023/06/05 11:01:08;;;;;;;;;;;20.90;54.10;;;;;;5080034;28;20124;-65
2023/06/05 11:03:52;;;;;;;;;;;20.90;54.30;;;;;;5114952;27;19932;-68
2023/06/05 11:06:17;;;;;;;;;;;20.90;54.50;;;;;;5088440;28;19924;-66
2023/06/05 11:09:03;;;;;;;;;;;21.00;54.70;;;;;;5082483;28;19927;-68
2023/06/05 11:11:28;;;;;;;;;;;21.00;54.70;;;;;;5090919;28;20280;-67
2023/06/05 11:13:55;;;;;;;;;;;21.00;54.70;;;;;;5083725;28;20358;-71
2023/06/05 11:16:37;;;;;;;;;;;21.00;54.60;;;;;;5079281;28;19954;-68
2023/06/05 11:19:23;;;;;;;;;;;21.00;54.80;;;;;;5088774;28;19928;-69
2023/06/05 11:22:08;;;;;;;;;;;21.00;54.90;;;;;;5117113;27;20199;-67
2023/06/05 11:24:35;;;;;;;;;;;21.00;54.80;;;;;;5087768;28;19935;-67
2023/06/05 11:27:01;;;;;;;;;;;21.00;54.80;;;;;;5080181;28;19924;-64
2023/06/05 11:29:26;;;;;;;;;;;21.00;54.80;;;;;;5087387;28;20402;-71
2023/06/05 11:31:52;;;;;;;;;;;21.00;54.80;;;;;;5087044;28;19931;-72
2023/06/05 11:34:18;;;;;;;;;;;21.00;54.70;;;;;;5088730;28;19924;-72
2023/06/05 11:36:44;;;;;;;;;;;20.90;54.70;;;;;;5086532;28;19920;-69
2023/06/05 11:39:10;;;;;;;;;;;21.00;54.70;;;;;;5083737;28;19928;-68
2023/06/05 11:41:42;;;;;;;;;;;20.90;54.70;;;;;;5078784;28;19924;-65
2023/06/05 11:44:08;;;;;;;;;;;21.00;54.70;;;;;;5084467;28;20015;-67
2023/06/05 11:46:42;;;;;;;;;;;20.90;54.60;;;;;;5084527;28;19930;-65
2023/06/05 11:49:22;;;;;;;;;;;21.00;54.70;;;;;;5085960;28;20532;-66
2023/06/05 11:51:47;;;;;;;;;;;21.00;54.60;;;;;;5074775;28;20014;-74
2023/06/05 11:54:22;;;;;;;;;;;21.00;54.60;;;;;;5104039;27;20027;-71
2023/06/05 11:56:52;;;;;;;;;;;21.00;55.00;;;;;;5070204;28;20403;-72
2023/06/05 11:59:17;;;;;;;;;;;21.00;55.10;;;;;;5074962;28;19925;-72
2023/06/05 12:01:43;;;;;;;;;;;21.10;55.10;;;;;;5072741;28;19928;-75
2023/06/05 12:04:09;;;;;;;;;;;21.10;55.20;;;;;;5103586;27;20291;-70
2023/06/05 12:06:48;;;;;;;;;;;21.20;55.10;;;;;;5075673;28;19934;-68
2023/06/05 12:09:15;;;;;;;;;;;21.20;55.10;;;;;;5071599;28;19930;-74
2023/06/05 12:11:42;;;;;;;;;;;21.20;55.10;;;;;;5070793;28;20391;-71
2023/06/05 12:14:09;;;;;;;;;;;21.20;55.00;;;;;;5064507;28;19924;-70
2023/06/05 12:16:35;;;;;;;;;;;21.20;55.00;;;;;;5100467;27;19964;-69
2023/06/05 12:19:02;;;;;;;;;;;21.20;55.00;;;;;;5069402;28;19935;-68
2023/06/05 12:21:28;;;;;;;;;;;21.20;55.20;;;;;;5069207;28;19943;-67
2023/06/05 12:24:01;;;;;;;;;;;21.30;55.20;;;;;;5071638;28;19928;-67
2023/06/05 12:26:29;;;;;;;;;;;21.20;55.10;;;;;;5074885;28;20314;-73
2023/06/05 12:29:11;;;;;;;;;;;21.20;55.10;;;;;;5070427;28;20301;-73
2023/06/05 12:31:39;;;;;;;;;;;21.20;55.00;;;;;;5073134;28;20609;-69
2023/06/05 12:34:05;;;;;;;;;;;21.20;55.70;;;;;;5075028;28;20279;-68
2023/06/05 12:36:39;;;;;;;;;;;21.20;54.90;;;;;;5074836;28;20109;-70
2023/06/05 12:39:05;;;;;;;;;;;21.20;54.90;;;;;;5103721;27;19964;-67
2023/06/05 12:41:31;;;;;;;;;;;21.20;55.00;;;;;;5069761;28;19968;-68
2023/06/05 12:43:58;;;;;;;;;;;21.20;55.00;;;;;;5091579;27;20399;-66
2023/06/05 12:46:24;;;;;;;;;;;21.20;55.00;;;;;;5071054;28;20194;-70
2023/06/05 12:48:50;;;;;;;;;;;21.30;55.00;;;;;;5067019;28;20367;-71
2023/06/05 12:51:16;;;;;;;;;;;21.30;55.00;;;;;;5067358;28;20059;-74
2023/06/05 12:53:41;;;;;;;;;;;21.30;55.00;;;;;;5065377;28;20482;-73
2023/06/05 12:56:08;;;;;;;;;;;21.30;54.90;;;;;;5062681;28;19920;-66
2023/06/05 12:58:33;;;;;;;;;;;21.30;55.20;;;;;;5066545;28;19967;-71
2023/06/05 13:00:59;;;;;;;;;;;21.30;55.20;;;;;;5070214;28;19955;-70
2023/06/05 13:03:25;;;;;;;;;;;21.40;55.10;;;;;;5070546;28;20288;-73
2023/06/05 13:05:50;;;;;;;;;;;21.40;54.90;;;;;;5101525;27;19924;-70
2023/06/05 13:08:16;;;;;;;;;;;21.40;54.80;;;;;;5073705;28;19924;-70
2023/06/05 13:10:41;;;;;;;;;;;21.40;54.70;;;;;;5111910;27;19967;-71
2023/06/05 13:13:07;;;;;;;;;;;21.40;54.60;;;;;;5079792;28;19932;-73
2023/06/05 13:15:32;;;;;;;;;;;21.40;54.70;;;;;;5082866;28;19954;-76
2023/06/05 13:17:58;;;;;;;;;;;21.40;54.70;;;;;;5082165;28;20418;-69
2023/06/05 13:20:23;;;;;;;;;;;21.30;54.70;;;;;;5075910;28;20239;-73
2023/06/05 13:22:49;;;;;;;;;;;21.40;54.70;;;;;;5076989;28;20324;-74
2023/06/05 13:25:14;;;;;;;;;;;21.40;54.80;;;;;;5076020;28;20463;-73
2023/06/05 13:27:40;;;;;;;;;;;21.40;54.70;;;;;;5076180;28;19928;-68
2023/06/05 13:30:06;;;;;;;;;;;21.40;54.70;;;;;;5075944;28;19920;-67
2023/06/05 13:32:33;;;;;;;;;;;21.40;54.10;;;;;;5075589;28;19935;-71
2023/06/05 13:34:59;;;;;;;;;;;21.40;53.40;;;;;;5111383;27;20763;-70
2023/06/05 13:37:24;;;;;;;;;;;21.40;53.30;;;;;;5083144;28;19920;-70
2023/06/05 13:39:50;;;;;;;;;;;21.50;53.30;;;;;;5083267;28;19947;-70
2023/06/05 13:42:15;;;;;;;;;;;21.40;53.30;;;;;;5083993;28;19927;-70
2023/06/05 13:44:41;;;;;;;;;;;21.40;53.30;;;;;;5086943;28;19968;-71
2023/06/05 13:47:08;;;;;;;;;;;21.40;53.20;;;;;;5084971;28;19930;-70
2023/06/05 13:49:34;;;;;;;;;;;21.40;53.30;;;;;;5085271;28;20919;-70
2023/06/05 13:51:59;;;;;;;;;;;21.40;53.20;;;;;;5086728;28;19923;-70
2023/06/05 13:54:25;;;;;;;;;;;21.40;53.20;;;;;;5084959;28;20121;-70
2023/06/05 13:56:51;;;;;;;;;;;21.40;53.20;;;;;;5080639;28;19928;-70
2023/06/05 13:59:17;;;;;;;;;;;21.40;53.30;;;;;;5079625;28;19931;-70
2023/06/05 14:01:42;;;;;;;;;;;21.30;53.20;;;;;;5084760;28;19924;-70
2023/06/05 14:04:08;;;;;;;;;;;21.30;53.20;;;;;;5085265;28;19920;-70
2023/06/05 14:06:37;;;;;;;;;;;21.30;53.20;;;;;;5087112;28;20003;-70
2023/06/05 14:09:02;;;;;;;;;;;21.30;53.20;;;;;;5082929;28;19920;-70
2023/06/05 14:11:28;;;;;;;;;;;21.30;53.20;;;;;;5084654;28;19927;-68
2023/06/05 14:13:53;;;;;;;;;;;21.30;53.20;;;;;;5103409;27;19928;-70
2023/06/05 14:16:19;;;;;;;;;;;21.30;53.20;;;;;;5086425;28;19931;-70
2023/06/05 14:18:45;;;;;;;;;;;21.30;53.20;;;;;;5086999;28;20276;-71
2023/06/05 14:21:10;;;;;;;;;;;21.30;53.20;;;;;;5086950;28;19981;-71
2023/06/05 14:23:36;;;;;;;;;;;21.30;53.20;;;;;;5087982;28;20108;-70
2023/06/05 14:26:01;;;;;;;;;;;21.30;53.20;;;;;;5087318;28;19943;-70